CHICAGO AURORA MUNICIPAL, IL, United States (KARR) 41-46N 088-28W 215M
Wind: Calm:0
Visibility: 8 mile(s):0
Sky conditions: clear
Temperature: 77.0 F (25.0 C)
Dew Point: 68.0 F (20.0 C)
Relative Humidity: 73%
Pressure (altimeter): 29.93 in. Hg (1013 hPa)
ob: KARR 200052Z 00000KT 8SM CLR 25/20 A2993 RMK AO2 SLP131 T02500200
Raw METAR:KARR 200052Z 00000KT 8SM CLR 25/20 A2993 RMK AO2 SLP131 T02500200
cycle: 1
Back to top

CHICAGO/WEST CH DUPAGE, IL, United States (KDPA) 41-54N 88-15W 230M
Wind: from the E (100 degrees) at 8 MPH (7 KT):0
Visibility: 6 mile(s):0
Sky conditions: clear
Weather: haze
Temperature: 77.0 F (25.0 C)
Dew Point: 69.1 F (20.6 C)
Relative Humidity: 76%
Pressure (altimeter): 29.93 in. Hg (1013 hPa)
ob: KDPA 200052Z 10007KT 6SM HZ CLR 25/21 A2993 RMK AO2 SLP130 T02500206
Raw METAR:KDPA 200052Z 10007KT 6SM HZ CLR 25/21 A2993 RMK AO2 SLP130 T02500206
cycle: 1
Back to top

De Kalb, De Kalb Taylor Municipal Airport, IL, United States (KDKB) 41-55-55N 088-42-30W
Wind: from the ENE (070 degrees) at 7 MPH (6 KT):0
Visibility: 10 mile(s):0
Sky conditions: partly cloudy
Temperature: 75.0 F (23.9 C)
Dew Point: 69.3 F (20.7 C)
Relative Humidity: 82%
Pressure (altimeter): 29.95 in. Hg (1014 hPa)
ob: KDKB 200055Z AUTO 07006KT 10SM SCT050 SCT065 24/21 A2995 RMK AO2 T02390207
Raw METAR:KDKB 200055Z AUTO 07006KT 10SM SCT050 SCT065 24/21 A2995 RMK AO2 T02390207
cycle: 1
Back to top

Joliet, Joliet Regional Airport, IL, United States (KJOT) 41-31-05N 088-10-31W
Wind: from the ENE (070 degrees) at 9 MPH (8 KT):0
Visibility: 10 mile(s):0
Sky conditions: clear
Temperature: 79.7 F (26.5 C)
Dew Point: 70.2 F (21.2 C)
Relative Humidity: 72%
Pressure (altimeter): 29.94 in. Hg (1013 hPa)
ob: KJOT 200055Z AUTO 07008KT 10SM CLR 27/21 A2994 RMK AO2 T02650212
Raw METAR:KJOT 200055Z AUTO 07008KT 10SM CLR 27/21 A2994 RMK AO2 T02650212
cycle: 1
Back to top

Kankakee, Greater Kankakee Airport, IL, United States (KIKK) 41-04-17N 087-50-47W
Wind: from the E (090 degrees) at 6 MPH (5 KT):0
Visibility: 10 mile(s):0
Sky conditions: clear
Temperature: 74.8 F (23.8 C)
Dew Point: 66.0 F (18.9 C)
Relative Humidity: 74%
Pressure (altimeter): 29.94 in. Hg (1013 hPa)
ob: KIKK 200055Z AUTO 09005KT 10SM CLR 24/19 A2994 RMK AO2 T02380189
Raw METAR:KIKK 200055Z AUTO 09005KT 10SM CLR 24/19 A2994 RMK AO2 T02380189
cycle: 1
Back to top

Morris, Morris Municipal-James R Washburn Field Airport, IL, United States (KC09) 41-25-31N 088-25-07W
Wind: from the ESE (110 degrees) at 5 MPH (4 KT):0
Visibility: 10 mile(s):0
Sky conditions: partly cloudy
Temperature: 74.7 F (23.7 C)
Dew Point: 67.3 F (19.6 C)
Relative Humidity: 77%
Pressure (altimeter): 29.92 in. Hg (1013 hPa)
ob: KC09 200055Z AUTO 11004KT 10SM SCT055 24/20 A2992 RMK AO2 T02370196
Raw METAR:KC09 200055Z AUTO 11004KT 10SM SCT055 24/20 A2992 RMK AO2 T02370196
cycle: 1
Back to top

Peru, Illinois Valley Regional-Walter A Duncan Field Airport, IL, United States (KVYS) 41-21-07N 089-09-11W
Wind: from the E (100 degrees) at 5 MPH (4 KT):0
Visibility: 10 mile(s):0
Sky conditions: clear
Temperature: 79.7 F (26.5 C)
Dew Point: 68.4 F (20.2 C)
Relative Humidity: 68%
Pressure (altimeter): 29.91 in. Hg (1012 hPa)
ob: KVYS 200055Z AUTO 10004KT 10SM CLR 27/20 A2991 RMK AO2 T02650202
Raw METAR:KVYS 200055Z AUTO 10004KT 10SM CLR 27/20 A2991 RMK AO2 T02650202
cycle: 1
Back to top

Rochelle, Rochelle Municipal-Koritz Field Airport, IL, United States (KRPJ) 41-53-35N 089-04-42W
Wind: from the E (090 degrees) at 3 MPH (3 KT):0
Visibility: 10 mile(s):0
Sky conditions: clear
Temperature: 74.3 F (23.5 C)
Dew Point: 70.2 F (21.2 C)
Relative Humidity: 86%
Pressure (altimeter): 29.93 in. Hg (1013 hPa)
ob: KRPJ 200055Z AUTO 09003KT 10SM CLR 24/21 A2993 RMK AO2 T02350212
Raw METAR:KRPJ 200055Z AUTO 09003KT 10SM CLR 24/21 A2993 RMK AO2 T02350212
cycle: 1
Back to top